Blue Point, Illinois
Current Conditions -  °F | °C
As of 6:55 AM on Monday 20 Oct 2014 (Local Time) from K1H2 Reporting Station
Scattered Clouds Scattered Clouds  
Wind Chill: 50°   Ceiling: Unl
Heat Index: 50°   Visibility: 10mi
Dew Point: 45°   Wind: 3mph
Humidity: 83%   Direction: 200°SSW
Pressure: 29.95"   Gusts: NA
Location:  39.1183°N, 88.6059°W
Report Text: K1H2 201155Z AUTO 20003KT 10SM SCT100 10/07 A2995 RMK AO2 T01000072 10108 20096
Loading
Personal Weather Stations






























Interactive Weather Map
Tropical Storm Tracking
New forecast layout! Learn more

10-Day Weather Forecast

Advertisements
Track Severe Weather on mobile